createdAt,value
2023-04-27T00:00:38.693Z,0.00
2023-04-27T00:01:38.665Z,0.00
2023-04-27T00:02:38.743Z,0.00
2023-04-27T00:03:38.761Z,0.00
2023-04-27T00:04:38.847Z,0.00
2023-04-27T00:05:38.659Z,0.00
2023-04-27T00:06:38.610Z,0.00
2023-04-27T00:07:38.586Z,0.00
2023-04-27T00:08:38.568Z,0.00
2023-04-27T00:09:38.560Z,0.00
2023-04-27T00:10:38.538Z,0.00
2023-04-27T00:11:38.531Z,0.00
2023-04-27T00:12:38.571Z,0.00
2023-04-27T00:13:38.493Z,0.00
2023-04-27T00:14:38.499Z,0.00
2023-04-27T00:15:38.568Z,0.00
2023-04-27T00:16:38.475Z,0.00
2023-04-27T00:17:38.478Z,0.00
2023-04-27T00:18:38.453Z,0.00
2023-04-27T00:19:38.534Z,0.00
2023-04-27T00:20:38.420Z,0.00
2023-04-27T00:21:38.431Z,0.00
2023-04-27T00:22:38.392Z,0.00
2023-04-27T00:23:38.385Z,0.00
2023-04-27T00:24:38.393Z,0.00
2023-04-27T00:25:38.571Z,0.00
2023-04-27T00:26:38.352Z,0.00
2023-04-27T00:27:38.356Z,0.00
2023-04-27T00:28:38.338Z,0.00
2023-04-27T00:29:38.331Z,0.00
2023-04-27T00:30:38.333Z,0.00
2023-04-27T00:31:38.451Z,0.00
2023-04-27T00:32:38.366Z,0.00
2023-04-27T00:33:38.268Z,0.00
2023-04-27T00:34:38.320Z,0.00
2023-04-27T00:35:38.335Z,0.00
2023-04-27T00:36:38.233Z,0.00
2023-04-27T00:37:38.240Z,0.00
2023-04-27T00:38:38.237Z,0.00
2023-04-27T00:39:38.232Z,0.00
2023-04-27T00:40:38.237Z,0.00
2023-04-27T00:41:38.215Z,0.00
2023-04-27T00:42:38.175Z,0.00
2023-04-27T00:43:38.170Z,0.00
2023-04-27T00:44:39.812Z,0.00
2023-04-27T00:45:38.206Z,0.00
2023-04-27T00:46:38.181Z,0.00
2023-04-27T00:47:38.295Z,0.00
2023-04-27T00:48:38.121Z,0.00
2023-04-27T00:49:38.107Z,0.00
2023-04-27T00:50:38.153Z,0.00
2023-04-27T00:51:38.098Z,0.00
2023-04-27T00:52:38.116Z,0.00
2023-04-27T00:53:38.068Z,0.00
2023-04-27T00:54:38.054Z,0.00
2023-04-27T00:55:38.149Z,0.00
2023-04-27T00:56:38.031Z,0.00
2023-04-27T00:57:38.014Z,0.00
2023-04-27T00:58:38.043Z,0.00
2023-04-27T00:59:37.988Z,0.00
2023-04-27T01:00:37.990Z,0.00
2023-04-27T01:01:37.995Z,0.00
2023-04-27T01:02:38.600Z,0.00
2023-04-27T01:03:38.163Z,0.00
2023-04-27T01:04:38.043Z,0.00
2023-04-27T01:05:37.928Z,0.00
2023-04-27T01:06:37.926Z,0.00
2023-04-27T01:07:37.918Z,0.00
2023-04-27T01:08:37.895Z,0.00
2023-04-27T01:09:37.953Z,0.00
2023-04-27T01:10:37.871Z,0.00
2023-04-27T01:11:37.872Z,0.00
2023-04-27T01:12:37.857Z,0.00
2023-04-27T01:13:37.861Z,0.00
2023-04-27T01:14:37.828Z,0.00
2023-04-27T01:15:37.891Z,0.00
2023-04-27T01:16:37.851Z,0.00
2023-04-27T01:17:37.837Z,0.00
2023-04-27T01:18:37.798Z,0.00
2023-04-27T01:19:38.028Z,0.00
2023-04-27T01:20:37.769Z,0.00
2023-04-27T01:21:37.753Z,0.00
2023-04-27T01:22:37.828Z,0.00
2023-04-27T01:23:37.743Z,0.00
2023-04-27T01:24:37.724Z,0.00
2023-04-27T01:25:37.796Z,0.00
2023-04-27T01:26:37.691Z,0.00
2023-04-27T01:27:37.688Z,0.00
2023-04-27T01:28:37.688Z,0.00
2023-04-27T01:29:37.680Z,0.00
2023-04-27T01:30:37.655Z,0.00
2023-04-27T01:31:37.719Z,0.00
2023-04-27T01:32:37.683Z,0.00
2023-04-27T01:33:37.642Z,0.00
2023-04-27T01:34:37.608Z,0.00
2023-04-27T01:35:37.638Z,0.00
2023-04-27T01:36:37.606Z,0.00
2023-04-27T01:37:37.632Z,0.00
2023-04-27T01:38:37.571Z,0.00
2023-04-27T01:39:37.578Z,0.00
2023-04-27T01:40:37.571Z,0.00
2023-04-27T01:41:37.555Z,0.00
2023-04-27T01:42:37.540Z,0.00
2023-04-27T01:43:37.520Z,0.00
2023-04-27T01:44:37.500Z,0.00
2023-04-27T01:45:37.540Z,0.00
2023-04-27T01:46:37.524Z,0.00
2023-04-27T01:47:37.583Z,0.00
2023-04-27T01:48:37.457Z,0.00
2023-04-27T01:49:37.449Z,0.00
2023-04-27T01:50:58.502Z,0.00
2023-04-27T01:51:59.292Z,0.00
2023-04-27T01:52:58.435Z,0.00
2023-04-27T01:53:58.516Z,0.00
2023-04-27T01:54:37.392Z,0.00
2023-04-27T01:55:37.382Z,0.00
2023-04-27T01:56:58.374Z,0.00
2023-04-27T01:57:58.384Z,0.00
2023-04-27T01:58:58.361Z,0.00
2023-04-27T01:59:58.356Z,0.00
2023-04-27T02:00:37.326Z,0.00
2023-04-27T02:01:37.378Z,0.00
2023-04-27T02:02:37.383Z,0.00
2023-04-27T02:03:37.492Z,0.00
2023-04-27T02:04:58.307Z,0.00
2023-04-27T02:05:37.276Z,0.00
2023-04-27T02:06:37.288Z,0.00
2023-04-27T02:07:58.324Z,0.00
2023-04-27T02:08:37.266Z,0.00
2023-04-27T02:09:37.274Z,0.00
2023-04-27T02:10:58.234Z,0.00
2023-04-27T02:11:37.220Z,0.00
2023-04-27T02:12:37.210Z,0.00
2023-04-27T02:13:58.189Z,0.00
2023-04-27T02:14:37.202Z,0.00
2023-04-27T02:15:37.191Z,0.00
2023-04-27T02:16:37.223Z,0.00
2023-04-27T02:17:37.203Z,0.00
2023-04-27T02:18:58.147Z,0.00
2023-04-27T02:19:37.130Z,0.00
2023-04-27T02:20:37.179Z,0.00
2023-04-27T02:21:58.153Z,0.00
2023-04-27T02:22:37.093Z,0.00
2023-04-27T02:23:37.084Z,0.00
2023-04-27T02:24:58.355Z,0.00
2023-04-27T02:25:37.066Z,0.00
2023-04-27T02:26:37.062Z,0.00
2023-04-27T02:27:58.066Z,0.00
2023-04-27T02:28:58.170Z,0.00
2023-04-27T02:29:58.030Z,0.00
2023-04-27T02:30:58.019Z,0.00
2023-04-27T02:31:58.117Z,0.00
2023-04-27T02:32:58.064Z,0.00
2023-04-27T02:33:58.034Z,0.00
2023-04-27T02:34:57.973Z,0.00
2023-04-27T02:35:57.964Z,0.00
2023-04-27T02:36:57.955Z,0.00
2023-04-27T02:37:57.999Z,0.00
2023-04-27T02:38:57.938Z,0.00
2023-04-27T02:39:57.936Z,0.00
2023-04-27T02:40:57.955Z,0.00
2023-04-27T02:41:58.311Z,0.00
2023-04-27T02:42:57.875Z,0.00
2023-04-27T02:43:57.864Z,0.00
2023-04-27T02:44:57.886Z,0.00
2023-04-27T02:45:57.833Z,0.00
2023-04-27T02:46:57.910Z,0.00
2023-04-27T02:47:57.860Z,0.00
2023-04-27T02:48:57.804Z,0.00
2023-04-27T02:49:57.839Z,0.00
2023-04-27T02:50:57.808Z,0.00
2023-04-27T02:51:57.794Z,0.00
2023-04-27T02:52:57.782Z,0.00
2023-04-27T02:53:57.807Z,0.00
2023-04-27T02:54:57.750Z,0.00
2023-04-27T02:55:57.751Z,0.00
2023-04-27T02:56:57.767Z,0.00
2023-04-27T02:57:57.718Z,0.00
2023-04-27T02:58:57.725Z,0.00
2023-04-27T02:59:57.716Z,0.00
2023-04-27T03:00:57.905Z,0.00
2023-04-27T03:01:57.683Z,0.00
2023-04-27T03:02:57.845Z,0.00
2023-04-27T03:03:57.902Z,0.00
2023-04-27T03:04:57.651Z,0.00
2023-04-27T03:05:57.694Z,0.00
2023-04-27T03:06:57.622Z,0.00
2023-04-27T03:07:57.628Z,0.00
2023-04-27T03:08:36.604Z,0.00
2023-04-27T03:09:57.597Z,0.00
2023-04-27T03:10:57.586Z,0.00
2023-04-27T03:11:57.638Z,0.00
2023-04-27T03:12:57.568Z,0.00
2023-04-27T03:13:57.555Z,0.00
2023-04-27T03:14:57.539Z,0.00
2023-04-27T03:15:57.603Z,0.00
2023-04-27T03:16:57.619Z,0.00
2023-04-27T03:17:57.546Z,0.00
2023-04-27T03:18:57.628Z,0.00
2023-04-27T03:19:57.500Z,0.00
2023-04-27T03:20:57.479Z,0.00
2023-04-27T03:21:36.452Z,0.00
2023-04-27T03:22:36.452Z,0.00
2023-04-27T03:23:36.443Z,0.00
2023-04-27T03:24:36.425Z,0.00
2023-04-27T03:25:36.572Z,0.00
2023-04-27T03:26:36.399Z,0.00
2023-04-27T03:27:36.396Z,0.00
2023-04-27T03:28:36.371Z,0.00
2023-04-27T03:29:36.378Z,0.00
2023-04-27T03:30:36.371Z,0.00
2023-04-27T03:31:36.375Z,0.00
2023-04-27T03:32:36.358Z,0.00
2023-04-27T03:33:36.324Z,0.00
2023-04-27T03:34:36.418Z,0.00
2023-04-27T03:35:36.297Z,0.00
2023-04-27T03:36:36.295Z,0.00
2023-04-27T03:37:36.289Z,0.00
2023-04-27T03:38:36.282Z,0.00
2023-04-27T03:39:36.254Z,0.00
2023-04-27T03:40:36.397Z,0.00
2023-04-27T03:41:36.235Z,0.00
2023-04-27T03:42:36.236Z,0.00
2023-04-27T03:43:36.204Z,0.00
2023-04-27T03:44:36.227Z,0.00
2023-04-27T03:45:36.240Z,0.00
2023-04-27T03:46:36.200Z,0.00
2023-04-27T03:47:36.337Z,0.00
2023-04-27T03:48:36.170Z,0.00
2023-04-27T03:49:36.154Z,0.00
2023-04-27T03:50:36.130Z,0.00
2023-04-27T03:51:36.182Z,0.00
2023-04-27T03:52:36.105Z,0.00
2023-04-27T03:53:36.092Z,0.00
2023-04-27T03:54:36.097Z,0.00
2023-04-27T03:55:36.089Z,0.00
2023-04-27T03:56:36.074Z,0.00
2023-04-27T03:57:36.068Z,4.00
2023-04-27T03:58:36.044Z,0.00
2023-04-27T03:59:36.030Z,0.00
2023-04-27T04:00:36.047Z,0.00
2023-04-27T04:01:36.002Z,0.00
2023-04-27T04:02:36.173Z,4.00
2023-04-27T04:03:36.060Z,4.00
2023-04-27T04:04:36.203Z,0.00
2023-04-27T04:05:35.968Z,4.00
2023-04-27T04:06:35.971Z,4.00
2023-04-27T04:07:35.954Z,0.00
2023-04-27T04:08:35.952Z,4.00
2023-04-27T04:09:35.918Z,4.00
2023-04-27T04:10:35.924Z,4.00
2023-04-27T04:11:35.952Z,4.00
2023-04-27T04:12:35.910Z,8.00
2023-04-27T04:13:35.948Z,4.00
2023-04-27T04:14:35.887Z,8.00
2023-04-27T04:15:35.888Z,8.00
2023-04-27T04:16:35.854Z,8.00
2023-04-27T04:17:35.862Z,8.00
2023-04-27T04:18:35.855Z,8.00
2023-04-27T04:19:35.819Z,8.00
2023-04-27T04:20:35.810Z,12.00
2023-04-27T04:21:35.788Z,12.00
2023-04-27T04:22:35.774Z,12.00
2023-04-27T04:23:35.776Z,16.00
2023-04-27T04:24:35.797Z,16.00
2023-04-27T04:25:35.746Z,20.00
2023-04-27T04:26:35.749Z,20.00
2023-04-27T04:27:35.718Z,24.00
2023-04-27T04:28:35.710Z,24.00
2023-04-27T04:29:35.734Z,28.00
2023-04-27T04:30:35.691Z,24.00
2023-04-27T04:31:35.694Z,32.00
2023-04-27T04:32:35.716Z,32.00
2023-04-27T04:33:35.655Z,36.00
2023-04-27T04:34:35.696Z,40.00
2023-04-27T04:35:35.636Z,44.00
2023-04-27T04:36:35.655Z,44.00
2023-04-27T04:37:35.613Z,44.00
2023-04-27T04:38:35.654Z,48.00
2023-04-27T04:39:35.605Z,52.00
2023-04-27T04:40:35.603Z,56.00
2023-04-27T04:41:35.587Z,60.00
2023-04-27T04:42:35.707Z,60.00
2023-04-27T04:43:35.551Z,68.00
2023-04-27T04:44:35.547Z,68.00
2023-04-27T04:45:35.582Z,72.00
2023-04-27T04:46:35.586Z,76.00
2023-04-27T04:47:35.562Z,76.00
2023-04-27T04:48:35.567Z,80.00
2023-04-27T04:49:35.505Z,84.00
2023-04-27T04:50:35.488Z,88.00
2023-04-27T04:51:35.472Z,96.00
2023-04-27T04:52:35.510Z,96.00
2023-04-27T04:53:35.512Z,104.00
2023-04-27T04:54:35.433Z,108.00
2023-04-27T04:55:35.424Z,112.00
2023-04-27T04:56:35.415Z,116.00
2023-04-27T04:57:35.403Z,120.00
2023-04-27T04:58:35.412Z,120.00
2023-04-27T04:59:35.474Z,124.00
2023-04-27T05:00:35.377Z,124.00
2023-04-27T05:01:35.449Z,128.00
2023-04-27T05:03:29.085Z,136.00
2023-04-27T05:04:28.794Z,136.00
2023-04-27T05:05:27.716Z,140.00
2023-04-27T05:06:27.813Z,144.00
2023-04-27T05:07:27.680Z,148.00
2023-04-27T05:08:27.643Z,152.00
2023-04-27T05:09:27.617Z,160.00
2023-04-27T05:10:27.617Z,160.00
2023-04-27T05:11:27.633Z,160.00
2023-04-27T05:12:27.647Z,164.00
2023-04-27T05:13:27.568Z,172.00
2023-04-27T05:14:27.565Z,180.00
2023-04-27T05:15:27.569Z,184.00
2023-04-27T05:16:27.620Z,196.00
2023-04-27T05:17:27.626Z,204.00
2023-04-27T05:18:27.564Z,212.00
2023-04-27T05:19:27.515Z,216.00
2023-04-27T05:20:27.505Z,224.00
2023-04-27T05:21:27.504Z,236.00
2023-04-27T05:22:27.484Z,244.00
2023-04-27T05:23:27.503Z,256.00
2023-04-27T05:24:27.474Z,264.00
2023-04-27T05:25:27.448Z,268.00
2023-04-27T05:26:27.444Z,280.00
2023-04-27T05:27:27.433Z,296.00
2023-04-27T05:28:27.521Z,316.00
2023-04-27T05:29:27.403Z,332.00
2023-04-27T05:30:27.413Z,328.00
2023-04-27T05:31:27.449Z,380.00
2023-04-27T05:32:27.397Z,408.00
2023-04-27T05:33:27.395Z,368.00
2023-04-27T05:34:27.368Z,356.00
2023-04-27T05:35:27.352Z,364.00
2023-04-27T05:36:27.346Z,384.00
2023-04-27T05:37:27.351Z,420.00
2023-04-27T05:38:27.307Z,408.00
2023-04-27T05:39:27.329Z,384.00
2023-04-27T05:40:27.480Z,392.00
2023-04-27T05:41:27.307Z,408.00
2023-04-27T05:42:27.286Z,424.00
2023-04-27T05:43:27.254Z,436.00
2023-04-27T05:44:27.359Z,424.00
2023-04-27T05:45:27.237Z,440.00
2023-04-27T05:46:27.369Z,448.00
2023-04-27T05:47:27.298Z,468.00
2023-04-27T05:48:27.206Z,496.00
2023-04-27T05:49:27.242Z,632.00
2023-04-27T05:50:27.189Z,700.00
2023-04-27T05:51:27.169Z,716.00
2023-04-27T05:52:27.173Z,568.00
2023-04-27T05:53:27.274Z,504.00
2023-04-27T05:54:27.137Z,512.00
2023-04-27T05:55:27.165Z,656.00
2023-04-27T05:56:27.112Z,956.00
2023-04-27T05:57:27.116Z,956.00
2023-04-27T05:58:27.108Z,992.00
2023-04-27T05:59:27.089Z,760.00
2023-04-27T06:00:27.072Z,696.00
2023-04-27T06:01:27.129Z,1136.00
2023-04-27T06:02:27.152Z,1180.00
2023-04-27T06:03:27.454Z,1244.00
2023-04-27T06:04:27.510Z,1124.00
2023-04-27T06:05:27.164Z,932.00
2023-04-27T06:06:27.037Z,768.00
2023-04-27T06:07:26.995Z,1132.00
2023-04-27T06:08:26.998Z,1276.00
2023-04-27T06:09:26.987Z,732.00
2023-04-27T06:10:26.994Z,852.00
2023-04-27T06:11:26.966Z,832.00
2023-04-27T06:12:27.039Z,896.00
2023-04-27T06:13:26.979Z,820.00
2023-04-27T06:14:26.946Z,1548.00
2023-04-27T06:15:26.929Z,1236.00
2023-04-27T06:16:26.985Z,1464.00
2023-04-27T06:17:26.902Z,1012.00
2023-04-27T06:18:26.886Z,704.00
2023-04-27T06:19:26.902Z,716.00
2023-04-27T06:20:26.968Z,1196.00
2023-04-27T06:21:26.885Z,1672.00
2023-04-27T06:22:26.861Z,1264.00
2023-04-27T06:23:26.881Z,832.00
2023-04-27T06:24:26.819Z,1208.00
2023-04-27T06:25:27.405Z,1692.00
2023-04-27T06:26:26.838Z,1756.00
2023-04-27T06:27:26.792Z,1752.00
2023-04-27T06:28:26.790Z,1708.00
2023-04-27T06:29:26.768Z,1712.00
2023-04-27T06:30:26.783Z,1768.00
2023-04-27T06:31:26.804Z,1776.00
2023-04-27T06:32:26.762Z,1808.00
2023-04-27T06:33:26.733Z,1852.00
2023-04-27T06:34:26.768Z,1824.00
2023-04-27T06:35:26.750Z,1728.00
2023-04-27T06:36:26.702Z,1680.00
2023-04-27T06:37:26.754Z,1716.00
2023-04-27T06:38:26.743Z,1312.00
2023-04-27T06:39:26.668Z,1760.00
2023-04-27T06:40:26.663Z,1848.00
2023-04-27T06:41:26.654Z,1860.00
2023-04-27T06:42:26.648Z,1856.00
2023-04-27T06:43:26.838Z,1780.00
2023-04-27T06:44:26.610Z,1752.00
2023-04-27T06:45:26.604Z,1808.00
2023-04-27T06:46:26.678Z,1756.00
2023-04-27T06:47:26.617Z,1944.00
2023-04-27T06:48:26.639Z,1976.00
2023-04-27T06:49:26.565Z,1976.00
2023-04-27T06:50:26.552Z,2004.00
2023-04-27T06:51:26.841Z,2008.00
2023-04-27T06:52:26.587Z,2020.00
2023-04-27T06:53:26.528Z,2004.00
2023-04-27T06:54:26.545Z,2132.00
2023-04-27T06:55:26.546Z,2092.00
2023-04-27T06:56:26.545Z,2116.00
2023-04-27T06:57:26.520Z,2168.00
2023-04-27T06:58:26.630Z,2168.00
2023-04-27T06:59:26.590Z,2156.00
2023-04-27T07:00:26.450Z,2172.00
2023-04-27T07:01:26.683Z,2228.00
2023-04-27T07:02:26.464Z,2244.00
2023-04-27T07:03:26.808Z,2264.00
2023-04-27T07:04:26.723Z,2264.00
2023-04-27T07:05:26.472Z,2316.00
2023-04-27T07:06:26.456Z,2348.00
2023-04-27T07:07:26.476Z,2348.00
2023-04-27T07:08:26.468Z,2376.00
2023-04-27T07:09:27.798Z,2404.00
2023-04-27T07:10:26.690Z,2416.00
2023-04-27T07:11:26.383Z,2428.00
2023-04-27T07:12:26.592Z,2428.00
2023-04-27T07:13:26.501Z,2492.00
2023-04-27T07:14:26.355Z,2516.00
2023-04-27T07:15:26.654Z,2520.00
2023-04-27T07:16:26.707Z,2456.00
2023-04-27T07:17:26.384Z,2244.00
2023-04-27T07:18:26.311Z,2128.00
2023-04-27T07:19:26.456Z,2228.00
2023-04-27T07:20:26.400Z,2092.00
2023-04-27T07:21:26.376Z,1972.00
2023-04-27T07:22:26.422Z,2096.00
2023-04-27T07:23:26.355Z,2468.00
2023-04-27T07:24:26.349Z,2476.00
2023-04-27T07:25:26.574Z,2552.00
2023-04-27T07:26:26.398Z,2464.00
2023-04-27T07:27:26.311Z,2452.00
2023-04-27T07:28:26.296Z,2372.00
2023-04-27T07:29:27.548Z,1992.00
2023-04-27T07:30:26.376Z,1976.00
2023-04-27T07:31:26.592Z,2224.00
2023-04-27T07:32:26.349Z,2256.00
2023-04-27T07:33:26.230Z,2684.00
2023-04-27T07:34:27.933Z,2524.00
2023-04-27T07:35:26.459Z,2260.00
2023-04-27T07:36:26.404Z,2276.00
2023-04-27T07:37:26.243Z,2276.00
2023-04-27T07:38:26.143Z,1952.00
2023-04-27T07:39:26.526Z,2416.00
2023-04-27T07:40:26.194Z,2404.00
2023-04-27T07:41:26.787Z,2520.00
2023-04-27T07:42:26.248Z,2696.00
2023-04-27T07:43:26.294Z,2700.00
2023-04-27T07:44:26.076Z,2740.00
2023-04-27T07:45:26.192Z,2652.00
2023-04-27T07:46:26.172Z,2604.00
2023-04-27T07:47:26.240Z,2408.00
2023-04-27T07:48:26.363Z,2488.00
2023-04-27T07:49:26.342Z,2300.00
2023-04-27T07:50:26.154Z,2328.00
2023-04-27T07:51:26.261Z,2640.00
2023-04-27T07:52:26.187Z,2776.00
2023-04-27T07:53:26.180Z,2812.00
2023-04-27T07:54:27.087Z,2784.00
2023-04-27T07:55:26.154Z,2844.00
2023-04-27T07:56:26.137Z,2860.00
2023-04-27T07:57:26.136Z,2832.00
2023-04-27T07:58:25.976Z,2836.00
2023-04-27T07:59:26.103Z,2856.00
2023-04-27T08:00:26.077Z,2840.00
2023-04-27T08:01:26.094Z,2808.00
2023-04-27T08:02:26.269Z,2788.00
2023-04-27T08:03:26.178Z,2748.00
2023-04-27T08:04:26.385Z,2752.00
2023-04-27T08:05:26.476Z,2732.00
2023-04-27T08:06:26.273Z,2744.00
2023-04-27T08:07:26.113Z,2704.00
2023-04-27T08:08:25.858Z,2772.00
2023-04-27T08:09:25.887Z,2712.00
2023-04-27T08:10:25.883Z,2828.00
2023-04-27T08:11:25.760Z,2844.00
2023-04-27T08:12:25.807Z,2844.00
2023-04-27T08:13:25.820Z,2860.00
2023-04-27T08:14:25.842Z,2808.00
2023-04-27T08:15:25.828Z,2800.00
2023-04-27T08:16:25.884Z,2844.00
2023-04-27T08:17:25.747Z,2820.00
2023-04-27T08:18:26.133Z,2712.00
2023-04-27T08:19:25.780Z,2676.00
2023-04-27T08:20:25.729Z,2688.00
2023-04-27T08:21:25.928Z,2528.00
2023-04-27T08:22:25.775Z,2540.00
2023-04-27T08:23:25.662Z,2508.00
2023-04-27T08:24:25.753Z,2644.00
2023-04-27T08:25:25.764Z,2660.00
2023-04-27T08:26:26.470Z,2652.00
2023-04-27T08:27:25.624Z,2472.00
2023-04-27T08:28:25.549Z,2452.00
2023-04-27T08:29:28.376Z,2448.00
2023-04-27T08:30:25.676Z,2520.00
2023-04-27T08:31:25.750Z,2432.00
2023-04-27T08:32:25.592Z,2544.00
2023-04-27T08:33:25.636Z,2524.00
2023-04-27T08:34:25.695Z,2464.00
2023-04-27T08:35:25.576Z,2736.00
2023-04-27T08:36:25.582Z,2856.00
2023-04-27T08:37:25.564Z,2824.00
2023-04-27T08:38:25.763Z,2828.00
2023-04-27T08:39:25.660Z,2824.00
2023-04-27T08:40:25.534Z,2828.00
2023-04-27T08:41:25.486Z,2852.00
2023-04-27T08:42:25.473Z,2820.00
2023-04-27T08:43:25.498Z,2796.00
2023-04-27T08:44:25.468Z,2800.00
2023-04-27T08:45:25.387Z,2800.00
2023-04-27T08:46:25.360Z,2752.00
2023-04-27T08:47:38.660Z,2748.00
2023-04-27T08:48:25.418Z,2752.00
2023-04-27T08:49:25.308Z,2676.00
2023-04-27T08:50:25.336Z,2700.00
2023-04-27T08:51:25.304Z,2756.00
2023-04-27T08:52:25.381Z,2792.00
2023-04-27T08:53:25.354Z,2884.00
2023-04-27T08:54:25.364Z,2856.00
2023-04-27T08:55:25.289Z,2764.00
2023-04-27T08:56:25.437Z,2672.00
2023-04-27T08:57:25.300Z,2552.00
2023-04-27T08:58:25.240Z,2576.00
2023-04-27T08:59:25.156Z,2564.00
2023-04-27T09:00:25.269Z,2580.00
2023-04-27T09:01:25.251Z,2584.00
2023-04-27T09:02:25.260Z,2564.00
2023-04-27T09:03:25.260Z,2548.00
2023-04-27T09:04:25.347Z,2600.00
2023-04-27T09:05:25.138Z,2656.00
2023-04-27T09:06:25.193Z,2648.00
2023-04-27T09:07:26.206Z,2696.00
2023-04-27T09:08:25.066Z,2668.00
2023-04-27T09:09:25.078Z,2692.00
2023-04-27T09:10:25.098Z,2688.00
2023-04-27T09:11:25.020Z,2636.00
2023-04-27T09:12:25.039Z,2672.00
2023-04-27T09:13:25.005Z,2496.00
2023-04-27T09:14:25.039Z,2472.00
2023-04-27T09:15:25.014Z,2576.00
2023-04-27T09:16:24.990Z,2536.00
2023-04-27T09:17:25.108Z,2312.00
2023-04-27T09:18:24.957Z,2472.00
2023-04-27T09:19:25.089Z,2592.00
2023-04-27T09:20:24.953Z,2652.00
2023-04-27T09:21:24.931Z,2672.00
2023-04-27T09:22:24.927Z,2656.00
2023-04-27T09:23:24.926Z,2636.00
2023-04-27T09:24:24.932Z,2612.00
2023-04-27T09:25:24.925Z,2440.00
2023-04-27T09:26:24.870Z,2432.00
2023-04-27T09:27:24.875Z,2644.00
2023-04-27T09:28:24.858Z,2616.00
2023-04-27T09:29:24.897Z,2608.00
2023-04-27T09:30:24.936Z,2636.00
2023-04-27T09:31:24.849Z,2680.00
2023-04-27T09:32:24.906Z,2672.00
2023-04-27T09:33:25.327Z,2656.00
2023-04-27T09:34:25.025Z,2552.00
2023-04-27T09:35:24.777Z,2560.00
2023-04-27T09:36:24.801Z,2604.00
2023-04-27T09:37:24.848Z,2628.00
2023-04-27T09:38:24.759Z,2636.00
2023-04-27T09:39:24.736Z,2616.00
2023-04-27T09:40:24.729Z,2624.00
2023-04-27T09:41:24.729Z,2612.00
2023-04-27T09:42:24.696Z,2648.00
2023-04-27T09:43:24.676Z,2660.00
2023-04-27T09:44:24.718Z,2680.00
2023-04-27T09:45:24.713Z,2584.00
2023-04-27T09:46:24.821Z,2584.00
2023-04-27T09:47:24.712Z,2516.00
2023-04-27T09:48:24.670Z,2368.00
2023-04-27T09:49:24.742Z,2084.00
2023-04-27T09:50:24.675Z,1872.00
2023-04-27T09:51:24.647Z,2304.00
2023-04-27T09:52:24.589Z,2284.00
2023-04-27T09:53:24.644Z,2372.00
2023-04-27T09:54:24.690Z,2492.00
2023-04-27T09:55:24.562Z,2276.00
2023-04-27T09:56:24.561Z,2040.00
2023-04-27T09:57:24.557Z,2428.00
2023-04-27T09:58:24.537Z,2552.00
2023-04-27T09:59:24.555Z,2516.00
2023-04-27T10:00:24.560Z,2452.00
2023-04-27T10:01:24.613Z,2576.00
2023-04-27T10:02:25.670Z,2344.00
2023-04-27T10:03:24.510Z,2392.00
2023-04-27T10:04:24.573Z,2412.00
2023-04-27T10:05:24.602Z,2288.00
2023-04-27T10:06:36.990Z,2032.00
2023-04-27T10:07:24.684Z,2008.00
2023-04-27T10:08:24.749Z,1884.00
2023-04-27T10:09:25.044Z,1844.00
2023-04-27T10:10:24.495Z,1740.00
2023-04-27T10:11:24.458Z,1760.00
2023-04-27T10:12:24.424Z,1832.00
2023-04-27T10:13:24.455Z,1812.00
2023-04-27T10:14:24.341Z,1928.00
2023-04-27T10:15:24.358Z,2092.00
2023-04-27T10:16:24.444Z,2144.00
2023-04-27T10:17:24.393Z,2116.00
2023-04-27T10:18:24.346Z,1908.00
2023-04-27T10:19:24.325Z,1980.00
2023-04-27T10:20:24.336Z,1868.00
2023-04-27T10:21:24.321Z,1788.00
2023-04-27T10:22:24.273Z,1792.00
2023-04-27T10:23:24.702Z,1800.00
2023-04-27T10:24:24.274Z,2040.00
2023-04-27T10:25:24.225Z,1892.00
2023-04-27T10:26:24.209Z,1996.00
2023-04-27T10:27:24.243Z,1800.00
2023-04-27T10:28:24.222Z,1664.00
2023-04-27T10:29:24.273Z,1568.00
2023-04-27T10:30:24.195Z,1640.00
2023-04-27T10:31:24.254Z,1612.00
2023-04-27T10:32:24.234Z,1664.00
2023-04-27T10:33:24.138Z,1640.00
2023-04-27T10:34:24.166Z,1688.00
2023-04-27T10:35:33.799Z,1784.00
2023-04-27T10:36:24.421Z,1948.00
2023-04-27T10:37:25.648Z,1932.00
2023-04-27T10:38:24.084Z,2016.00
2023-04-27T10:39:30.025Z,1920.00
2023-04-27T10:40:25.056Z,1852.00
2023-04-27T10:41:24.170Z,1976.00
2023-04-27T10:42:24.038Z,1824.00
2023-04-27T10:43:24.120Z,1952.00
2023-04-27T10:44:24.027Z,1924.00
2023-04-27T10:45:24.100Z,1828.00
2023-04-27T10:46:24.017Z,2032.00
2023-04-27T10:47:24.047Z,2004.00
2023-04-27T10:48:24.112Z,1944.00
2023-04-27T10:49:24.013Z,1948.00
2023-04-27T10:50:23.966Z,2012.00
2023-04-27T10:51:23.963Z,1892.00
2023-04-27T10:52:23.998Z,2000.00
2023-04-27T10:53:24.028Z,1976.00
2023-04-27T10:54:24.056Z,2268.00
2023-04-27T10:55:23.972Z,2224.00
2023-04-27T10:56:23.943Z,2120.00
2023-04-27T10:57:23.885Z,2104.00
2023-04-27T10:58:24.163Z,2156.00
2023-04-27T10:59:24.199Z,2152.00
2023-04-27T11:00:23.955Z,2100.00
2023-04-27T11:01:23.860Z,2068.00
2023-04-27T11:02:23.931Z,2056.00
2023-04-27T11:03:31.459Z,2016.00
2023-04-27T11:04:23.812Z,1936.00
2023-04-27T11:05:23.806Z,1984.00
2023-04-27T11:06:23.781Z,2100.00
2023-04-27T11:07:23.835Z,2116.00
2023-04-27T11:08:23.758Z,2136.00
2023-04-27T11:09:23.771Z,2176.00
2023-04-27T11:10:23.733Z,2100.00
2023-04-27T11:11:23.732Z,1804.00
2023-04-27T11:12:23.712Z,2132.00
2023-04-27T11:13:23.760Z,2124.00
2023-04-27T11:14:23.736Z,2044.00
2023-04-27T11:15:23.679Z,1936.00
2023-04-27T11:16:23.752Z,1892.00
2023-04-27T11:17:23.684Z,1764.00
2023-04-27T11:18:23.670Z,1712.00
2023-04-27T11:19:23.668Z,1784.00
2023-04-27T11:20:23.631Z,1976.00
2023-04-27T11:21:23.608Z,1948.00
2023-04-27T11:22:23.620Z,2016.00
2023-04-27T11:23:23.582Z,1936.00
2023-04-27T11:24:23.634Z,1920.00
2023-04-27T11:25:23.575Z,1892.00
2023-04-27T11:26:23.556Z,1912.00
2023-04-27T11:27:23.570Z,1968.00
2023-04-27T11:28:23.531Z,1988.00
2023-04-27T11:29:23.524Z,2048.00
2023-04-27T11:30:23.523Z,2084.00
2023-04-27T11:31:23.568Z,2104.00
2023-04-27T11:32:23.558Z,2084.00
2023-04-27T11:33:23.482Z,2092.00
2023-04-27T11:34:23.466Z,2080.00
2023-04-27T11:35:23.479Z,2112.00
2023-04-27T11:36:23.452Z,2128.00
2023-04-27T11:37:23.473Z,2024.00
2023-04-27T11:38:23.540Z,2096.00
2023-04-27T11:39:23.828Z,2068.00
2023-04-27T11:40:24.630Z,2020.00
2023-04-27T11:41:23.447Z,1960.00
2023-04-27T11:42:23.383Z,1940.00
2023-04-27T11:43:23.381Z,1896.00
2023-04-27T11:44:23.383Z,2004.00
2023-04-27T11:45:23.350Z,1816.00
2023-04-27T11:46:23.386Z,1840.00
2023-04-27T11:47:23.368Z,1888.00
2023-04-27T11:48:23.327Z,1932.00
2023-04-27T11:49:23.335Z,1956.00
2023-04-27T11:50:23.299Z,1940.00
2023-04-27T11:51:23.285Z,1976.00
2023-04-27T11:52:23.300Z,2044.00
2023-04-27T11:53:23.316Z,2024.00
2023-04-27T11:54:23.258Z,2020.00
2023-04-27T11:55:23.241Z,2012.00
2023-04-27T11:56:23.247Z,2012.00
2023-04-27T11:57:23.229Z,1920.00
2023-04-27T11:58:23.236Z,1956.00
2023-04-27T11:59:23.192Z,1976.00
2023-04-27T12:00:23.186Z,1976.00
2023-04-27T12:01:34.749Z,1884.00
2023-04-27T12:02:24.309Z,1820.00
2023-04-27T12:03:23.467Z,1768.00
2023-04-27T12:04:23.222Z,1820.00
2023-04-27T12:05:23.352Z,1928.00
2023-04-27T12:07:23.135Z,1652.00
2023-04-27T12:08:23.103Z,1612.00
2023-04-27T12:09:23.125Z,1596.00
2023-04-27T12:10:23.078Z,1600.00
2023-04-27T12:11:23.082Z,1404.00
2023-04-27T12:12:23.058Z,1476.00
2023-04-27T12:13:23.063Z,1508.00
2023-04-27T12:14:23.035Z,1484.00
2023-04-27T12:15:23.066Z,1288.00
2023-04-27T12:16:23.157Z,1276.00
2023-04-27T12:17:23.063Z,1184.00
2023-04-27T12:18:23.002Z,1204.00
2023-04-27T12:19:22.974Z,1236.00
2023-04-27T12:20:23.004Z,1280.00
2023-04-27T12:21:22.980Z,1504.00
2023-04-27T12:22:22.948Z,1468.00
2023-04-27T12:23:22.937Z,1384.00
2023-04-27T12:24:22.925Z,1400.00
2023-04-27T12:25:22.916Z,1356.00
2023-04-27T12:26:22.941Z,1412.00
2023-04-27T12:27:22.909Z,1460.00
2023-04-27T12:28:22.882Z,1440.00
2023-04-27T12:29:23.005Z,1524.00
2023-04-27T12:30:22.884Z,1436.00
2023-04-27T12:31:24.155Z,1540.00
2023-04-27T12:32:22.858Z,1536.00
2023-04-27T12:33:22.999Z,1640.00
2023-04-27T12:34:22.878Z,1668.00
2023-04-27T12:35:22.816Z,1620.00